sensor_id;sensor_type;location;lat;lon;timestamp;temperature;humidity
40516;DHT22;26216;53.724;9.898;2023-05-20T00:00:08;13.20;63.10
40516;DHT22;26216;53.724;9.898;2023-05-20T00:02:35;13.20;63.40
40516;DHT22;26216;53.724;9.898;2023-05-20T00:05:01;13.10;63.40
40516;DHT22;26216;53.724;9.898;2023-05-20T00:07:27;13.10;63.80
40516;DHT22;26216;53.724;9.898;2023-05-20T00:09:53;13.10;64.10
40516;DHT22;26216;53.724;9.898;2023-05-20T00:12:19;13.00;63.90
40516;DHT22;26216;53.724;9.898;2023-05-20T00:14:44;13.10;64.20
40516;DHT22;26216;53.724;9.898;2023-05-20T00:17:10;13.00;64.00
40516;DHT22;26216;53.724;9.898;2023-05-20T00:19:36;13.00;65.20
40516;DHT22;26216;53.724;9.898;2023-05-20T00:22:02;13.00;64.50
40516;DHT22;26216;53.724;9.898;2023-05-20T00:24:28;12.90;65.70
40516;DHT22;26216;53.724;9.898;2023-05-20T00:26:53;12.90;65.90
40516;DHT22;26216;53.724;9.898;2023-05-20T00:29:20;12.90;66.10
40516;DHT22;26216;53.724;9.898;2023-05-20T00:31:46;12.90;66.00
40516;DHT22;26216;53.724;9.898;2023-05-20T00:34:12;12.80;66.50
40516;DHT22;26216;53.724;9.898;2023-05-20T00:36:38;12.80;67.00
40516;DHT22;26216;53.724;9.898;2023-05-20T00:39:04;12.80;67.00
40516;DHT22;26216;53.724;9.898;2023-05-20T00:41:30;12.70;67.20
40516;DHT22;26216;53.724;9.898;2023-05-20T00:43:56;12.70;67.00
40516;DHT22;26216;53.724;9.898;2023-05-20T00:46:25;12.70;67.70
40516;DHT22;26216;53.724;9.898;2023-05-20T00:48:52;12.70;69.90
40516;DHT22;26216;53.724;9.898;2023-05-20T00:51:19;12.70;69.30
40516;DHT22;26216;53.724;9.898;2023-05-20T00:53:45;12.60;70.60
40516;DHT22;26216;53.724;9.898;2023-05-20T00:56:11;12.60;69.20
40516;DHT22;26216;53.724;9.898;2023-05-20T00:58:37;12.60;69.40
40516;DHT22;26216;53.724;9.898;2023-05-20T01:01:04;12.60;71.60
40516;DHT22;26216;53.724;9.898;2023-05-20T01:03:31;12.70;69.60
40516;DHT22;26216;53.724;9.898;2023-05-20T01:05:56;12.60;70.30
40516;DHT22;26216;53.724;9.898;2023-05-20T01:08:24;12.60;70.70
40516;DHT22;26216;53.724;9.898;2023-05-20T01:10:59;12.60;70.80
40516;DHT22;26216;53.724;9.898;2023-05-20T01:13:34;12.60;71.40
40516;DHT22;26216;53.724;9.898;2023-05-20T01:16:02;12.60;70.70
40516;DHT22;26216;53.724;9.898;2023-05-20T01:18:29;12.60;71.60
40516;DHT22;26216;53.724;9.898;2023-05-20T01:20:58;12.60;71.50
40516;DHT22;26216;53.724;9.898;2023-05-20T01:23:38;12.60;71.20
40516;DHT22;26216;53.724;9.898;2023-05-20T01:26:05;12.60;71.00
40516;DHT22;26216;53.724;9.898;2023-05-20T01:28:35;12.70;71.10
40516;DHT22;26216;53.724;9.898;2023-05-20T01:31:04;12.70;71.20
40516;DHT22;26216;53.724;9.898;2023-05-20T01:33:34;12.60;71.30
40516;DHT22;26216;53.724;9.898;2023-05-20T01:36:01;12.70;71.40
40516;DHT22;26216;53.724;9.898;2023-05-20T01:38:27;12.70;71.20
40516;DHT22;26216;53.724;9.898;2023-05-20T01:40:53;12.70;72.10
40516;DHT22;26216;53.724;9.898;2023-05-20T01:43:20;12.70;71.20
40516;DHT22;26216;53.724;9.898;2023-05-20T01:45:46;12.70;72.30
40516;DHT22;26216;53.724;9.898;2023-05-20T01:48:12;12.70;72.20
40516;DHT22;26216;53.724;9.898;2023-05-20T01:50:38;12.70;73.30
40516;DHT22;26216;53.724;9.898;2023-05-20T01:53:05;12.70;72.80
40516;DHT22;26216;53.724;9.898;2023-05-20T01:55:33;12.70;73.20
40516;DHT22;26216;53.724;9.898;2023-05-20T01:57:58;12.70;73.90
40516;DHT22;26216;53.724;9.898;2023-05-20T02:00:24;12.60;73.30
40516;DHT22;26216;53.724;9.898;2023-05-20T02:02:50;12.60;73.00
40516;DHT22;26216;53.724;9.898;2023-05-20T02:05:16;12.60;73.40
40516;DHT22;26216;53.724;9.898;2023-05-20T02:07:42;12.60;74.70
40516;DHT22;26216;53.724;9.898;2023-05-20T02:10:08;12.60;74.30
40516;DHT22;26216;53.724;9.898;2023-05-20T02:12:34;12.60;74.10
40516;DHT22;26216;53.724;9.898;2023-05-20T02:15:00;12.60;74.90
40516;DHT22;26216;53.724;9.898;2023-05-20T02:17:26;12.60;74.50
40516;DHT22;26216;53.724;9.898;2023-05-20T02:19:51;12.60;74.10
40516;DHT22;26216;53.724;9.898;2023-05-20T02:22:17;12.60;76.20
40516;DHT22;26216;53.724;9.898;2023-05-20T02:24:43;12.50;76.00
40516;DHT22;26216;53.724;9.898;2023-05-20T02:27:09;12.50;75.90
40516;DHT22;26216;53.724;9.898;2023-05-20T02:29:35;12.50;77.60
40516;DHT22;26216;53.724;9.898;2023-05-20T02:32:01;12.50;77.40
40516;DHT22;26216;53.724;9.898;2023-05-20T02:34:32;12.50;77.40
40516;DHT22;26216;53.724;9.898;2023-05-20T02:36:58;12.40;77.50
40516;DHT22;26216;53.724;9.898;2023-05-20T02:39:23;12.50;77.70
40516;DHT22;26216;53.724;9.898;2023-05-20T02:41:49;12.40;77.40
40516;DHT22;26216;53.724;9.898;2023-05-20T02:44:15;12.40;77.20
40516;DHT22;26216;53.724;9.898;2023-05-20T02:46:41;12.40;78.80
40516;DHT22;26216;53.724;9.898;2023-05-20T02:49:07;12.40;77.20
40516;DHT22;26216;53.724;9.898;2023-05-20T02:51:32;12.40;77.90
40516;DHT22;26216;53.724;9.898;2023-05-20T02:53:58;12.40;77.30
40516;DHT22;26216;53.724;9.898;2023-05-20T02:56:24;12.40;77.50
40516;DHT22;26216;53.724;9.898;2023-05-20T02:58:51;12.40;78.60
40516;DHT22;26216;53.724;9.898;2023-05-20T03:01:17;12.30;77.80
40516;DHT22;26216;53.724;9.898;2023-05-20T03:03:43;12.40;77.90
40516;DHT22;26216;53.724;9.898;2023-05-20T03:06:09;12.30;78.50
40516;DHT22;26216;53.724;9.898;2023-05-20T03:08:35;12.30;77.90
40516;DHT22;26216;53.724;9.898;2023-05-20T03:11:01;12.40;78.10
40516;DHT22;26216;53.724;9.898;2023-05-20T03:13:27;12.30;78.90
40516;DHT22;26216;53.724;9.898;2023-05-20T03:15:53;12.40;78.20
40516;DHT22;26216;53.724;9.898;2023-05-20T03:18:19;12.40;79.50
40516;DHT22;26216;53.724;9.898;2023-05-20T03:20:46;12.30;79.10
40516;DHT22;26216;53.724;9.898;2023-05-20T03:23:12;12.30;79.80
40516;DHT22;26216;53.724;9.898;2023-05-20T03:25:38;12.30;80.40
40516;DHT22;26216;53.724;9.898;2023-05-20T03:28:05;12.40;81.20
40516;DHT22;26216;53.724;9.898;2023-05-20T03:30:31;12.30;79.90
40516;DHT22;26216;53.724;9.898;2023-05-20T03:32:57;12.40;81.20
40516;DHT22;26216;53.724;9.898;2023-05-20T03:35:24;12.30;80.90
40516;DHT22;26216;53.724;9.898;2023-05-20T03:37:50;12.30;81.50
40516;DHT22;26216;53.724;9.898;2023-05-20T03:40:17;12.30;82.60
40516;DHT22;26216;53.724;9.898;2023-05-20T03:42:45;12.30;81.70
40516;DHT22;26216;53.724;9.898;2023-05-20T03:45:11;12.30;81.70
40516;DHT22;26216;53.724;9.898;2023-05-20T03:47:37;12.30;84.00
40516;DHT22;26216;53.724;9.898;2023-05-20T03:50:03;12.30;84.50
40516;DHT22;26216;53.724;9.898;2023-05-20T03:52:28;12.40;84.50
40516;DHT22;26216;53.724;9.898;2023-05-20T03:54:54;12.30;85.00
40516;DHT22;26216;53.724;9.898;2023-05-20T03:57:21;12.30;84.60
40516;DHT22;26216;53.724;9.898;2023-05-20T03:59:47;12.30;87.00
40516;DHT22;26216;53.724;9.898;2023-05-20T04:02:13;12.30;86.40
40516;DHT22;26216;53.724;9.898;2023-05-20T04:04:39;12.40;85.60
40516;DHT22;26216;53.724;9.898;2023-05-20T04:07:08;12.40;85.90
40516;DHT22;26216;53.724;9.898;2023-05-20T04:09:34;12.40;85.40
40516;DHT22;26216;53.724;9.898;2023-05-20T04:12:00;12.40;86.80
40516;DHT22;26216;53.724;9.898;2023-05-20T04:14:26;12.40;86.80
40516;DHT22;26216;53.724;9.898;2023-05-20T04:16:52;12.50;86.50
40516;DHT22;26216;53.724;9.898;2023-05-20T04:19:18;12.50;87.50
40516;DHT22;26216;53.724;9.898;2023-05-20T04:21:44;12.50;88.40
40516;DHT22;26216;53.724;9.898;2023-05-20T04:24:27;12.50;86.70
40516;DHT22;26216;53.724;9.898;2023-05-20T04:26:53;12.60;87.60
40516;DHT22;26216;53.724;9.898;2023-05-20T04:29:19;12.60;88.70
40516;DHT22;26216;53.724;9.898;2023-05-20T04:31:46;12.70;88.00
40516;DHT22;26216;53.724;9.898;2023-05-20T04:34:12;12.70;88.20
40516;DHT22;26216;53.724;9.898;2023-05-20T04:36:38;12.80;88.90
40516;DHT22;26216;53.724;9.898;2023-05-20T04:39:05;12.90;89.30
40516;DHT22;26216;53.724;9.898;2023-05-20T04:41:32;12.90;89.30
40516;DHT22;26216;53.724;9.898;2023-05-20T04:43:58;13.10;90.00
40516;DHT22;26216;53.724;9.898;2023-05-20T04:46:25;13.10;89.30
40516;DHT22;26216;53.724;9.898;2023-05-20T04:48:51;13.20;88.30
40516;DHT22;26216;53.724;9.898;2023-05-20T04:51:18;13.30;88.80
40516;DHT22;26216;53.724;9.898;2023-05-20T04:53:44;13.40;89.00
40516;DHT22;26216;53.724;9.898;2023-05-20T04:56:17;13.40;89.90
40516;DHT22;26216;53.724;9.898;2023-05-20T04:58:42;13.60;89.20
40516;DHT22;26216;53.724;9.898;2023-05-20T05:01:08;13.60;89.50
40516;DHT22;26216;53.724;9.898;2023-05-20T05:03:34;13.70;89.00
40516;DHT22;26216;53.724;9.898;2023-05-20T05:06:00;13.80;88.80
40516;DHT22;26216;53.724;9.898;2023-05-20T05:08:25;13.80;89.10
40516;DHT22;26216;53.724;9.898;2023-05-20T05:11:10;13.90;89.70
40516;DHT22;26216;53.724;9.898;2023-05-20T05:13:54;14.00;88.80
40516;DHT22;26216;53.724;9.898;2023-05-20T05:16:39;14.10;88.90
40516;DHT22;26216;53.724;9.898;2023-05-20T05:19:23;14.10;88.60
40516;DHT22;26216;53.724;9.898;2023-05-20T05:22:08;14.20;90.00
40516;DHT22;26216;53.724;9.898;2023-05-20T05:24:52;14.30;89.00
40516;DHT22;26216;53.724;9.898;2023-05-20T05:27:38;14.30;89.40
40516;DHT22;26216;53.724;9.898;2023-05-20T05:30:23;14.40;89.70
40516;DHT22;26216;53.724;9.898;2023-05-20T05:33:07;14.50;89.20
40516;DHT22;26216;53.724;9.898;2023-05-20T05:35:52;14.60;89.50
40516;DHT22;26216;53.724;9.898;2023-05-20T05:38:36;14.70;89.50
40516;DHT22;26216;53.724;9.898;2023-05-20T05:41:21;14.80;89.10
40516;DHT22;26216;53.724;9.898;2023-05-20T05:44:05;14.90;88.80
40516;DHT22;26216;53.724;9.898;2023-05-20T05:46:49;14.90;88.50
40516;DHT22;26216;53.724;9.898;2023-05-20T05:49:34;15.00;89.10
40516;DHT22;26216;53.724;9.898;2023-05-20T05:52:18;15.10;89.70
40516;DHT22;26216;53.724;9.898;2023-05-20T05:55:02;15.10;89.60
40516;DHT22;26216;53.724;9.898;2023-05-20T05:57:47;15.20;88.80
40516;DHT22;26216;53.724;9.898;2023-05-20T06:00:31;15.30;89.70
40516;DHT22;26216;53.724;9.898;2023-05-20T06:03:15;15.40;89.50
40516;DHT22;26216;53.724;9.898;2023-05-20T06:06:00;15.50;89.50
40516;DHT22;26216;53.724;9.898;2023-05-20T06:08:44;15.60;89.10
40516;DHT22;26216;53.724;9.898;2023-05-20T06:11:29;15.70;89.40
40516;DHT22;26216;53.724;9.898;2023-05-20T06:13:56;15.80;89.40
40516;DHT22;26216;53.724;9.898;2023-05-20T06:16:22;15.90;88.90
40516;DHT22;26216;53.724;9.898;2023-05-20T06:18:47;15.90;89.40
40516;DHT22;26216;53.724;9.898;2023-05-20T06:21:17;16.00;89.50
40516;DHT22;26216;53.724;9.898;2023-05-20T06:23:43;16.10;89.00
40516;DHT22;26216;53.724;9.898;2023-05-20T06:26:09;16.10;88.90
40516;DHT22;26216;53.724;9.898;2023-05-20T06:28:35;16.20;89.20
40516;DHT22;26216;53.724;9.898;2023-05-20T06:31:01;16.20;88.70
40516;DHT22;26216;53.724;9.898;2023-05-20T06:33:27;16.30;89.00
40516;DHT22;26216;53.724;9.898;2023-05-20T06:35:55;16.40;89.50
40516;DHT22;26216;53.724;9.898;2023-05-20T06:38:21;16.50;89.20
40516;DHT22;26216;53.724;9.898;2023-05-20T06:40:47;16.60;88.90
40516;DHT22;26216;53.724;9.898;2023-05-20T06:43:14;16.70;88.80
40516;DHT22;26216;53.724;9.898;2023-05-20T06:45:40;16.80;88.40
40516;DHT22;26216;53.724;9.898;2023-05-20T06:48:06;16.90;88.30
40516;DHT22;26216;53.724;9.898;2023-05-20T06:50:32;16.90;87.90
40516;DHT22;26216;53.724;9.898;2023-05-20T06:52:58;17.00;87.30
40516;DHT22;26216;53.724;9.898;2023-05-20T06:55:24;17.10;87.40
40516;DHT22;26216;53.724;9.898;2023-05-20T06:57:50;17.20;87.60
40516;DHT22;26216;53.724;9.898;2023-05-20T07:00:17;17.20;87.10
40516;DHT22;26216;53.724;9.898;2023-05-20T07:02:43;17.30;86.70
40516;DHT22;26216;53.724;9.898;2023-05-20T07:05:09;17.40;86.50
40516;DHT22;26216;53.724;9.898;2023-05-20T07:07:35;17.50;86.50
40516;DHT22;26216;53.724;9.898;2023-05-20T07:10:01;17.50;86.50
40516;DHT22;26216;53.724;9.898;2023-05-20T07:12:30;17.60;86.30
40516;DHT22;26216;53.724;9.898;2023-05-20T07:14:56;17.70;86.10
40516;DHT22;26216;53.724;9.898;2023-05-20T07:17:23;17.80;85.70
40516;DHT22;26216;53.724;9.898;2023-05-20T07:19:49;17.80;85.80
40516;DHT22;26216;53.724;9.898;2023-05-20T07:22:15;17.90;85.30
40516;DHT22;26216;53.724;9.898;2023-05-20T07:24:41;18.00;84.90
40516;DHT22;26216;53.724;9.898;2023-05-20T07:27:07;18.10;84.50
40516;DHT22;26216;53.724;9.898;2023-05-20T07:29:34;18.10;84.50
40516;DHT22;26216;53.724;9.898;2023-05-20T07:32:01;18.20;84.20
40516;DHT22;26216;53.724;9.898;2023-05-20T07:34:27;18.30;84.10
40516;DHT22;26216;53.724;9.898;2023-05-20T07:36:52;18.40;83.90
40516;DHT22;26216;53.724;9.898;2023-05-20T07:39:18;18.40;83.70
40516;DHT22;26216;53.724;9.898;2023-05-20T07:41:44;18.50;83.80
40516;DHT22;26216;53.724;9.898;2023-05-20T07:44:10;18.50;83.60
40516;DHT22;26216;53.724;9.898;2023-05-20T07:46:38;18.60;83.50
40516;DHT22;26216;53.724;9.898;2023-05-20T07:49:04;18.70;83.30
40516;DHT22;26216;53.724;9.898;2023-05-20T07:51:30;18.70;83.20
40516;DHT22;26216;53.724;9.898;2023-05-20T07:53:56;18.70;83.40
40516;DHT22;26216;53.724;9.898;2023-05-20T07:56:22;18.80;83.10
40516;DHT22;26216;53.724;9.898;2023-05-20T07:58:57;18.80;83.00
40516;DHT22;26216;53.724;9.898;2023-05-20T08:01:24;18.90;82.60
40516;DHT22;26216;53.724;9.898;2023-05-20T08:03:51;18.90;81.70
40516;DHT22;26216;53.724;9.898;2023-05-20T08:06:17;18.90;81.60
40516;DHT22;26216;53.724;9.898;2023-05-20T08:08:45;18.90;82.10
40516;DHT22;26216;53.724;9.898;2023-05-20T08:11:11;18.90;82.20
40516;DHT22;26216;53.724;9.898;2023-05-20T08:13:37;19.00;82.80
40516;DHT22;26216;53.724;9.898;2023-05-20T08:16:04;19.00;82.50
40516;DHT22;26216;53.724;9.898;2023-05-20T08:18:31;19.10;82.20
40516;DHT22;26216;53.724;9.898;2023-05-20T08:20:58;19.10;81.80
40516;DHT22;26216;53.724;9.898;2023-05-20T08:23:24;19.20;81.70
40516;DHT22;26216;53.724;9.898;2023-05-20T08:25:50;19.20;81.40
40516;DHT22;26216;53.724;9.898;2023-05-20T08:28:17;19.20;81.00
40516;DHT22;26216;53.724;9.898;2023-05-20T08:30:43;19.20;81.30
40516;DHT22;26216;53.724;9.898;2023-05-20T08:33:09;19.20;80.90
40516;DHT22;26216;53.724;9.898;2023-05-20T08:35:35;19.20;80.30
40516;DHT22;26216;53.724;9.898;2023-05-20T08:38:04;19.30;80.20
40516;DHT22;26216;53.724;9.898;2023-05-20T08:40:30;19.20;79.60
40516;DHT22;26216;53.724;9.898;2023-05-20T08:42:56;19.30;80.00
40516;DHT22;26216;53.724;9.898;2023-05-20T08:45:24;19.30;79.90
40516;DHT22;26216;53.724;9.898;2023-05-20T08:47:53;19.30;79.80
40516;DHT22;26216;53.724;9.898;2023-05-20T08:50:19;19.40;79.10
40516;DHT22;26216;53.724;9.898;2023-05-20T08:52:47;19.40;78.70
40516;DHT22;26216;53.724;9.898;2023-05-20T08:55:31;19.40;78.70
40516;DHT22;26216;53.724;9.898;2023-05-20T08:58:02;19.50;77.70
40516;DHT22;26216;53.724;9.898;2023-05-20T09:00:28;19.60;78.20
40516;DHT22;26216;53.724;9.898;2023-05-20T09:02:54;19.60;77.80
40516;DHT22;26216;53.724;9.898;2023-05-20T09:05:21;19.70;78.10
40516;DHT22;26216;53.724;9.898;2023-05-20T09:07:47;19.70;78.30
40516;DHT22;26216;53.724;9.898;2023-05-20T09:10:13;19.70;78.30
40516;DHT22;26216;53.724;9.898;2023-05-20T09:12:39;19.80;75.40
40516;DHT22;26216;53.724;9.898;2023-05-20T09:15:06;19.80;75.80
40516;DHT22;26216;53.724;9.898;2023-05-20T09:17:36;19.90;75.50
40516;DHT22;26216;53.724;9.898;2023-05-20T09:20:11;20.00;75.40
40516;DHT22;26216;53.724;9.898;2023-05-20T09:22:38;20.10;73.70
40516;DHT22;26216;53.724;9.898;2023-05-20T09:25:04;20.00;74.40
40516;DHT22;26216;53.724;9.898;2023-05-20T09:27:31;20.10;73.30
40516;DHT22;26216;53.724;9.898;2023-05-20T09:29:57;20.10;72.70
40516;DHT22;26216;53.724;9.898;2023-05-20T09:32:23;20.00;71.70
40516;DHT22;26216;53.724;9.898;2023-05-20T09:34:51;20.10;71.50
40516;DHT22;26216;53.724;9.898;2023-05-20T09:37:17;20.10;71.80
40516;DHT22;26216;53.724;9.898;2023-05-20T09:39:54;20.10;72.40
40516;DHT22;26216;53.724;9.898;2023-05-20T09:42:37;20.10;71.80
40516;DHT22;26216;53.724;9.898;2023-05-20T09:45:06;20.20;71.80
40516;DHT22;26216;53.724;9.898;2023-05-20T09:47:36;20.20;71.80
40516;DHT22;26216;53.724;9.898;2023-05-20T09:50:05;20.20;72.00
40516;DHT22;26216;53.724;9.898;2023-05-20T09:52:33;20.20;71.80
40516;DHT22;26216;53.724;9.898;2023-05-20T09:55:02;20.20;71.70
40516;DHT22;26216;53.724;9.898;2023-05-20T09:57:33;20.40;71.60
40516;DHT22;26216;53.724;9.898;2023-05-20T09:59:59;20.40;71.70
40516;DHT22;26216;53.724;9.898;2023-05-20T10:02:25;20.40;71.60
40516;DHT22;26216;53.724;9.898;2023-05-20T10:04:53;20.50;72.20
40516;DHT22;26216;53.724;9.898;2023-05-20T10:07:44;20.60;72.10
40516;DHT22;26216;53.724;9.898;2023-05-20T10:10:25;20.70;71.10
40516;DHT22;26216;53.724;9.898;2023-05-20T10:13:31;20.70;71.40
40516;DHT22;26216;53.724;9.898;2023-05-20T10:21:35;20.70;69.00
40516;DHT22;26216;53.724;9.898;2023-05-20T10:24:08;20.70;69.10
40516;DHT22;26216;53.724;9.898;2023-05-20T10:26:36;20.60;69.00
40516;DHT22;26216;53.724;9.898;2023-05-20T10:29:14;20.60;69.10
40516;DHT22;26216;53.724;9.898;2023-05-20T10:31:51;20.60;68.90
40516;DHT22;26216;53.724;9.898;2023-05-20T10:34:18;20.50;69.00
40516;DHT22;26216;53.724;9.898;2023-05-20T10:36:46;20.40;69.20
40516;DHT22;26216;53.724;9.898;2023-05-20T10:39:15;20.40;69.40
40516;DHT22;26216;53.724;9.898;2023-05-20T10:41:42;20.30;69.30
40516;DHT22;26216;53.724;9.898;2023-05-20T10:44:08;20.20;69.60
40516;DHT22;26216;53.724;9.898;2023-05-20T10:46:34;20.10;69.90
40516;DHT22;26216;53.724;9.898;2023-05-20T10:49:03;20.00;70.60
40516;DHT22;26216;53.724;9.898;2023-05-20T10:51:29;19.90;70.90
40516;DHT22;26216;53.724;9.898;2023-05-20T10:54:00;19.80;71.30
40516;DHT22;26216;53.724;9.898;2023-05-20T10:56:27;19.80;71.90
40516;DHT22;26216;53.724;9.898;2023-05-20T10:58:53;19.70;72.40
40516;DHT22;26216;53.724;9.898;2023-05-20T11:01:27;19.70;73.20
40516;DHT22;26216;53.724;9.898;2023-05-20T11:03:56;19.70;73.40
40516;DHT22;26216;53.724;9.898;2023-05-20T11:06:26;19.70;73.90
40516;DHT22;26216;53.724;9.898;2023-05-20T11:08:53;19.70;73.80
40516;DHT22;26216;53.724;9.898;2023-05-20T11:11:20;19.80;73.40
40516;DHT22;26216;53.724;9.898;2023-05-20T11:13:50;19.80;73.50
40516;DHT22;26216;53.724;9.898;2023-05-20T11:16:19;19.90;72.60
40516;DHT22;26216;53.724;9.898;2023-05-20T11:18:47;20.00;72.80
40516;DHT22;26216;53.724;9.898;2023-05-20T11:21:13;20.00;73.00
40516;DHT22;26216;53.724;9.898;2023-05-20T11:23:40;20.10;73.20
40516;DHT22;26216;53.724;9.898;2023-05-20T11:26:06;20.10;73.20
40516;DHT22;26216;53.724;9.898;2023-05-20T11:28:34;20.20;73.60
40516;DHT22;26216;53.724;9.898;2023-05-20T11:31:00;20.30;74.00
40516;DHT22;26216;53.724;9.898;2023-05-20T11:33:26;20.40;72.20
40516;DHT22;26216;53.724;9.898;2023-05-20T11:35:53;20.40;72.10
40516;DHT22;26216;53.724;9.898;2023-05-20T11:38:20;20.40;71.90
40516;DHT22;26216;53.724;9.898;2023-05-20T11:40:55;20.40;71.80
40516;DHT22;26216;53.724;9.898;2023-05-20T11:43:23;20.40;71.70
40516;DHT22;26216;53.724;9.898;2023-05-20T11:45:56;20.40;71.70
40516;DHT22;26216;53.724;9.898;2023-05-20T11:48:24;20.40;71.40
40516;DHT22;26216;53.724;9.898;2023-05-20T11:50:53;20.30;71.10
40516;DHT22;26216;53.724;9.898;2023-05-20T11:53:21;20.30;71.40
40516;DHT22;26216;53.724;9.898;2023-05-20T11:55:51;20.20;71.00
40516;DHT22;26216;53.724;9.898;2023-05-20T11:58:22;20.20;71.20
40516;DHT22;26216;53.724;9.898;2023-05-20T12:00:48;20.20;71.50
40516;DHT22;26216;53.724;9.898;2023-05-20T12:03:15;20.10;71.50
40516;DHT22;26216;53.724;9.898;2023-05-20T12:05:41;20.10;71.50
40516;DHT22;26216;53.724;9.898;2023-05-20T12:08:08;20.10;71.50
40516;DHT22;26216;53.724;9.898;2023-05-20T12:10:34;20.00;71.90
40516;DHT22;26216;53.724;9.898;2023-05-20T12:13:02;20.00;72.20
40516;DHT22;26216;53.724;9.898;2023-05-20T12:15:28;20.00;72.60
40516;DHT22;26216;53.724;9.898;2023-05-20T12:17:55;20.00;72.50
40516;DHT22;26216;53.724;9.898;2023-05-20T12:20:22;20.00;72.70
40516;DHT22;26216;53.724;9.898;2023-05-20T12:22:49;19.90;72.90
40516;DHT22;26216;53.724;9.898;2023-05-20T12:25:17;19.90;73.00
40516;DHT22;26216;53.724;9.898;2023-05-20T12:27:45;19.90;73.10
40516;DHT22;26216;53.724;9.898;2023-05-20T12:30:15;19.80;72.90
40516;DHT22;26216;53.724;9.898;2023-05-20T12:32:42;19.90;72.90
40516;DHT22;26216;53.724;9.898;2023-05-20T12:35:09;19.90;73.00
40516;DHT22;26216;53.724;9.898;2023-05-20T12:37:39;19.90;74.00
40516;DHT22;26216;53.724;9.898;2023-05-20T12:40:10;19.90;73.40
40516;DHT22;26216;53.724;9.898;2023-05-20T12:42:40;19.90;73.20
40516;DHT22;26216;53.724;9.898;2023-05-20T12:45:07;19.90;73.40
40516;DHT22;26216;53.724;9.898;2023-05-20T12:47:34;19.90;73.30
40516;DHT22;26216;53.724;9.898;2023-05-20T12:50:01;19.80;73.40
40516;DHT22;26216;53.724;9.898;2023-05-20T12:52:27;19.70;73.80
40516;DHT22;26216;53.724;9.898;2023-05-20T12:54:54;19.70;73.80
40516;DHT22;26216;53.724;9.898;2023-05-20T12:57:22;19.70;74.00
40516;DHT22;26216;53.724;9.898;2023-05-20T12:59:48;19.70;74.60
40516;DHT22;26216;53.724;9.898;2023-05-20T13:02:14;19.70;74.70
40516;DHT22;26216;53.724;9.898;2023-05-20T13:04:40;19.70;74.30
40516;DHT22;26216;53.724;9.898;2023-05-20T13:07:06;19.70;74.30
40516;DHT22;26216;53.724;9.898;2023-05-20T13:09:32;19.60;74.10
40516;DHT22;26216;53.724;9.898;2023-05-20T13:12:00;19.60;74.30
40516;DHT22;26216;53.724;9.898;2023-05-20T13:14:26;19.50;74.60
40516;DHT22;26216;53.724;9.898;2023-05-20T13:16:52;19.40;74.80
40516;DHT22;26216;53.724;9.898;2023-05-20T13:19:23;19.40;75.40
40516;DHT22;26216;53.724;9.898;2023-05-20T13:21:50;19.40;75.70
40516;DHT22;26216;53.724;9.898;2023-05-20T13:24:16;19.30;75.60
40516;DHT22;26216;53.724;9.898;2023-05-20T13:26:42;19.30;75.50
40516;DHT22;26216;53.724;9.898;2023-05-20T13:29:08;19.20;75.60
40516;DHT22;26216;53.724;9.898;2023-05-20T13:31:34;19.20;75.70
40516;DHT22;26216;53.724;9.898;2023-05-20T13:34:00;19.10;76.10
40516;DHT22;26216;53.724;9.898;2023-05-20T13:36:26;19.10;76.30
40516;DHT22;26216;53.724;9.898;2023-05-20T13:38:52;19.10;76.50
40516;DHT22;26216;53.724;9.898;2023-05-20T13:41:18;19.10;76.40
40516;DHT22;26216;53.724;9.898;2023-05-20T13:43:44;19.10;76.90
40516;DHT22;26216;53.724;9.898;2023-05-20T13:46:12;19.10;77.10
40516;DHT22;26216;53.724;9.898;2023-05-20T13:48:39;19.10;77.50
40516;DHT22;26216;53.724;9.898;2023-05-20T13:51:05;19.10;77.50
40516;DHT22;26216;53.724;9.898;2023-05-20T13:53:31;19.10;77.30
40516;DHT22;26216;53.724;9.898;2023-05-20T13:55:57;19.20;76.70
40516;DHT22;26216;53.724;9.898;2023-05-20T13:58:23;19.30;76.60
40516;DHT22;26216;53.724;9.898;2023-05-20T14:00:49;19.20;76.60
40516;DHT22;26216;53.724;9.898;2023-05-20T14:03:15;19.20;76.80
40516;DHT22;26216;53.724;9.898;2023-05-20T14:05:42;19.20;76.90
40516;DHT22;26216;53.724;9.898;2023-05-20T14:08:08;19.10;76.70
40516;DHT22;26216;53.724;9.898;2023-05-20T14:10:34;19.20;77.30
40516;DHT22;26216;53.724;9.898;2023-05-20T14:12:59;19.20;77.90
40516;DHT22;26216;53.724;9.898;2023-05-20T14:15:27;19.20;78.00
40516;DHT22;26216;53.724;9.898;2023-05-20T14:17:57;19.30;77.80
40516;DHT22;26216;53.724;9.898;2023-05-20T14:20:24;19.30;77.60
40516;DHT22;26216;53.724;9.898;2023-05-20T14:22:53;19.40;78.20
40516;DHT22;26216;53.724;9.898;2023-05-20T14:25:19;19.40;77.60
40516;DHT22;26216;53.724;9.898;2023-05-20T14:27:45;19.40;77.70
40516;DHT22;26216;53.724;9.898;2023-05-20T14:30:11;19.40;78.40
40516;DHT22;26216;53.724;9.898;2023-05-20T14:32:38;19.40;77.90
40516;DHT22;26216;53.724;9.898;2023-05-20T14:35:04;19.50;77.60
40516;DHT22;26216;53.724;9.898;2023-05-20T14:37:30;19.50;77.20
40516;DHT22;26216;53.724;9.898;2023-05-20T14:39:56;19.50;76.90
40516;DHT22;26216;53.724;9.898;2023-05-20T14:42:22;19.50;76.50
40516;DHT22;26216;53.724;9.898;2023-05-20T14:44:48;19.50;76.60
40516;DHT22;26216;53.724;9.898;2023-05-20T14:47:14;19.50;76.50
40516;DHT22;26216;53.724;9.898;2023-05-20T14:49:44;19.50;76.70
40516;DHT22;26216;53.724;9.898;2023-05-20T14:52:11;19.50;77.30
40516;DHT22;26216;53.724;9.898;2023-05-20T14:54:37;19.60;77.60
40516;DHT22;26216;53.724;9.898;2023-05-20T14:57:05;19.60;77.40
40516;DHT22;26216;53.724;9.898;2023-05-20T14:59:31;19.60;77.30
40516;DHT22;26216;53.724;9.898;2023-05-20T15:01:57;19.70;76.90
40516;DHT22;26216;53.724;9.898;2023-05-20T15:04:23;19.70;76.60
40516;DHT22;26216;53.724;9.898;2023-05-20T15:06:50;19.80;76.90
40516;DHT22;26216;53.724;9.898;2023-05-20T15:09:17;19.70;76.50
40516;DHT22;26216;53.724;9.898;2023-05-20T15:11:43;19.70;76.40
40516;DHT22;26216;53.724;9.898;2023-05-20T15:14:09;19.70;76.40
40516;DHT22;26216;53.724;9.898;2023-05-20T15:16:35;19.70;76.70
40516;DHT22;26216;53.724;9.898;2023-05-20T15:19:01;19.70;76.90
40516;DHT22;26216;53.724;9.898;2023-05-20T15:21:28;19.80;76.00
40516;DHT22;26216;53.724;9.898;2023-05-20T15:23:54;19.80;76.10
40516;DHT22;26216;53.724;9.898;2023-05-20T15:26:20;19.70;75.60
40516;DHT22;26216;53.724;9.898;2023-05-20T15:28:46;19.80;76.10
40516;DHT22;26216;53.724;9.898;2023-05-20T15:31:12;19.80;76.10
40516;DHT22;26216;53.724;9.898;2023-05-20T15:33:38;19.80;76.10
40516;DHT22;26216;53.724;9.898;2023-05-20T15:36:04;19.80;75.80
40516;DHT22;26216;53.724;9.898;2023-05-20T15:38:31;19.80;75.70
40516;DHT22;26216;53.724;9.898;2023-05-20T15:40:56;19.80;75.30